createdAt,value
2019-05-02T00:02:14.404Z,37.77
2019-05-02T00:04:51.035Z,36.63
2019-05-02T00:07:21.765Z,40.00
2019-05-02T00:09:53.618Z,51.03
2019-05-02T00:12:25.480Z,36.37
2019-05-02T00:15:01.988Z,37.60
2019-05-02T00:17:34.045Z,47.63
2019-05-02T00:20:08.894Z,38.47
2019-05-02T00:22:41.085Z,37.33
2019-05-02T00:25:16.000Z,41.87
2019-05-02T00:27:48.612Z,45.13
2019-05-02T00:30:20.969Z,42.50
2019-05-02T00:32:53.241Z,40.67
2019-05-02T00:35:26.168Z,38.73
2019-05-02T00:38:02.463Z,39.90
2019-05-02T00:40:31.443Z,41.07
2019-05-02T00:43:04.273Z,41.47
2019-05-02T00:45:36.440Z,43.23
2019-05-02T00:48:13.130Z,41.47
2019-05-02T00:50:50.397Z,45.87
2019-05-02T00:53:18.892Z,42.17
2019-05-02T00:55:50.751Z,39.98
2019-05-02T00:58:22.566Z,43.33
2019-05-02T01:01:29.471Z,44.70
2019-05-02T01:04:01.707Z,41.53
2019-05-02T01:06:34.055Z,46.33
2019-05-02T01:09:11.161Z,39.57
2019-05-02T01:11:40.603Z,42.57
2019-05-02T01:14:12.789Z,39.95
2019-05-02T01:16:44.769Z,46.07
2019-05-02T01:19:17.278Z,40.07
2019-05-02T01:21:48.873Z,39.80
2019-05-02T01:24:20.428Z,41.05
2019-05-02T01:27:04.543Z,42.13
2019-05-02T01:29:43.138Z,43.27
2019-05-02T01:32:39.985Z,44.63
2019-05-02T01:35:20.929Z,41.10
2019-05-02T01:38:17.471Z,46.77
2019-05-02T01:40:53.361Z,43.60
2019-05-02T01:43:27.117Z,50.57
2019-05-02T01:45:59.090Z,45.90
2019-05-02T01:48:30.808Z,43.35
2019-05-02T01:51:04.468Z,47.53
2019-05-02T01:53:36.109Z,44.37
2019-05-02T01:56:07.592Z,45.53
2019-05-02T01:58:39.287Z,48.73
2019-05-02T02:01:10.838Z,48.10
2019-05-02T02:03:45.539Z,48.73
2019-05-02T02:06:16.712Z,45.73
2019-05-02T02:08:48.674Z,47.87
2019-05-02T02:11:20.263Z,44.67
2019-05-02T02:13:52.701Z,52.78
2019-05-02T02:16:24.585Z,43.17
2019-05-02T02:19:05.634Z,47.00
2019-05-02T02:21:47.028Z,45.40
2019-05-02T02:24:25.105Z,45.33
2019-05-02T02:26:58.190Z,42.17
2019-05-02T02:29:30.390Z,45.03
2019-05-02T02:32:02.155Z,41.47
2019-05-02T02:34:34.018Z,48.13
2019-05-02T02:37:12.489Z,47.33
2019-05-02T02:39:39.540Z,41.23
2019-05-02T02:42:11.556Z,43.43
2019-05-02T02:44:55.829Z,43.57
2019-05-02T02:47:28.745Z,38.47
2019-05-02T02:50:02.510Z,40.00
2019-05-02T02:52:37.782Z,41.47
2019-05-02T02:55:07.556Z,34.73
2019-05-02T02:57:39.712Z,34.90
2019-05-02T03:00:11.386Z,37.10
2019-05-02T03:02:48.506Z,35.78
2019-05-02T03:05:18.519Z,34.40
2019-05-02T03:07:51.124Z,32.10
2019-05-02T03:10:22.947Z,35.00
2019-05-02T03:13:28.854Z,33.27
2019-05-02T03:16:06.893Z,33.53
2019-05-02T03:18:40.734Z,33.67
2019-05-02T03:21:13.442Z,29.27
2019-05-02T03:23:42.293Z,34.17
2019-05-02T03:26:15.468Z,33.57
2019-05-02T03:28:57.099Z,32.10
2019-05-02T03:31:25.043Z,36.57
2019-05-02T03:34:00.239Z,38.88
2019-05-02T03:36:35.671Z,35.93
2019-05-02T03:39:13.395Z,39.40
2019-05-02T03:41:37.894Z,42.97
2019-05-02T03:44:11.879Z,41.60
2019-05-02T03:46:44.106Z,41.33
2019-05-02T03:49:16.069Z,42.07
2019-05-02T03:51:47.923Z,44.90
2019-05-02T03:54:20.310Z,40.33
2019-05-02T03:56:53.451Z,41.93
2019-05-02T03:59:37.263Z,40.73
2019-05-02T04:01:59.852Z,41.13
2019-05-02T04:04:31.193Z,41.17
2019-05-02T04:07:03.605Z,41.83
2019-05-02T04:09:41.856Z,43.40
2019-05-02T04:12:18.548Z,38.93
2019-05-02T04:14:45.709Z,34.65
2019-05-02T04:17:18.513Z,32.63
2019-05-02T04:19:50.510Z,32.77
2019-05-02T04:22:22.688Z,38.38
2019-05-02T04:24:56.797Z,38.00
2019-05-02T04:27:34.127Z,39.73
2019-05-02T04:30:10.859Z,40.40
2019-05-02T04:32:36.395Z,37.55
2019-05-02T04:35:07.656Z,44.33
2019-05-02T04:37:41.254Z,39.73
2019-05-02T04:40:13.533Z,41.43
2019-05-02T04:42:51.260Z,38.80
2019-05-02T04:45:26.449Z,37.20
2019-05-02T04:47:58.614Z,39.60
2019-05-02T04:50:25.637Z,35.13
2019-05-02T04:52:59.279Z,34.43
2019-05-02T04:55:33.366Z,35.00
2019-05-02T04:58:08.148Z,32.37
2019-05-02T05:00:44.782Z,31.70
2019-05-02T05:03:15.767Z,32.70
2019-05-02T05:05:47.791Z,35.40
2019-05-02T05:08:26.165Z,32.73
2019-05-02T05:10:51.770Z,27.17
2019-05-02T05:13:26.169Z,35.30
2019-05-02T05:15:57.403Z,37.50
2019-05-02T05:18:30.202Z,31.17
2019-05-02T05:21:02.143Z,33.43
2019-05-02T05:24:01.400Z,36.87
2019-05-02T05:26:38.399Z,32.53
2019-05-02T05:29:08.286Z,31.30
2019-05-02T05:31:40.918Z,34.10
2019-05-02T05:34:12.432Z,34.00
2019-05-02T05:36:43.902Z,32.30
2019-05-02T05:39:17.180Z,34.90
2019-05-02T05:41:52.251Z,34.78
2019-05-02T05:44:30.533Z,29.43
2019-05-02T05:47:00.306Z,32.53
2019-05-02T05:49:31.923Z,31.03
2019-05-02T05:52:04.090Z,35.13
2019-05-02T05:54:42.117Z,32.83
2019-05-02T05:57:19.210Z,34.97
2019-05-02T05:59:48.398Z,34.03
2019-05-02T06:02:19.860Z,35.45
2019-05-02T06:04:55.211Z,34.23
2019-05-02T06:07:24.754Z,38.73
2019-05-02T06:09:56.381Z,40.07
2019-05-02T06:12:30.385Z,36.13
2019-05-02T06:15:03.802Z,36.90
2019-05-02T06:17:34.832Z,38.73
2019-05-02T06:20:06.879Z,32.60
2019-05-02T06:22:38.335Z,36.17
2019-05-02T06:25:11.050Z,32.57
2019-05-02T06:27:42.740Z,39.20
2019-05-02T06:30:15.285Z,41.83
2019-05-02T06:32:50.001Z,37.20
2019-05-02T06:35:21.087Z,42.05
2019-05-02T06:37:52.602Z,38.58
2019-05-02T06:40:23.967Z,34.87
2019-05-02T06:42:55.645Z,42.62
2019-05-02T06:45:27.375Z,39.27
2019-05-02T06:48:01.187Z,36.57
2019-05-02T06:50:33.338Z,35.00
2019-05-02T06:53:09.655Z,40.50
2019-05-02T06:55:39.853Z,46.37
2019-05-02T06:58:12.513Z,41.80
2019-05-02T07:00:56.831Z,39.20
2019-05-02T07:03:17.491Z,44.20
2019-05-02T07:05:49.244Z,40.40
2019-05-02T07:08:21.934Z,41.25
2019-05-02T07:10:59.310Z,45.78
2019-05-02T07:13:26.917Z,48.97
2019-05-02T07:16:37.239Z,40.70
2019-05-02T07:18:57.301Z,42.10
2019-05-02T07:21:29.130Z,39.45
2019-05-02T07:24:00.982Z,38.08
2019-05-02T07:26:32.716Z,40.53
2019-05-02T07:29:04.499Z,37.53
2019-05-02T07:31:36.549Z,44.60
2019-05-02T07:34:12.921Z,42.07
2019-05-02T07:36:42.005Z,39.37
2019-05-02T07:39:13.697Z,44.40
2019-05-02T07:41:45.241Z,46.97
2019-05-02T07:44:17.192Z,38.37
2019-05-02T07:46:51.965Z,46.07
2019-05-02T07:49:21.657Z,39.33
2019-05-02T07:51:57.609Z,42.77
2019-05-02T07:54:26.814Z,45.30
2019-05-02T07:56:58.494Z,41.33
2019-05-02T07:59:30.281Z,41.03
2019-05-02T08:02:01.514Z,42.93
2019-05-02T08:04:32.828Z,45.40
2019-05-02T08:07:04.241Z,40.80
2019-05-02T08:09:39.322Z,40.23
2019-05-02T08:12:11.183Z,47.67
2019-05-02T08:14:42.946Z,43.20
2019-05-02T08:17:17.261Z,44.17
2019-05-02T08:19:48.461Z,45.07
2019-05-02T08:22:19.961Z,41.37
2019-05-02T08:24:52.085Z,46.80
2019-05-02T08:27:43.041Z,40.93
2019-05-02T08:30:21.012Z,43.87
2019-05-02T08:32:52.336Z,42.73
2019-05-02T08:35:24.088Z,41.73
2019-05-02T08:37:56.376Z,42.33
2019-05-02T08:40:27.701Z,47.40
2019-05-02T08:43:03.417Z,51.68
2019-05-02T08:45:37.724Z,48.73
2019-05-02T08:48:06.558Z,45.70
2019-05-02T08:50:37.978Z,48.80
2019-05-02T08:53:14.259Z,48.33
2019-05-02T08:55:45.347Z,51.40
2019-05-02T08:58:17.067Z,61.33
2019-05-02T09:00:48.829Z,54.50
2019-05-02T09:03:20.694Z,52.37
2019-05-02T09:06:04.934Z,54.87
2019-05-02T09:08:25.816Z,51.33
2019-05-02T09:10:57.608Z,58.43
2019-05-02T09:13:29.688Z,60.73
2019-05-02T09:16:05.675Z,51.53
2019-05-02T09:18:38.254Z,51.97
2019-05-02T09:21:07.806Z,59.10
2019-05-02T09:23:41.976Z,58.07
2019-05-02T09:26:13.356Z,57.07
2019-05-02T09:28:45.228Z,59.50
2019-05-02T09:31:16.445Z,54.53
2019-05-02T09:33:48.127Z,55.20
2019-05-02T09:36:20.031Z,57.20
2019-05-02T09:38:55.897Z,53.47
2019-05-02T09:41:26.963Z,62.30
2019-05-02T09:43:59.118Z,53.27
2019-05-02T09:46:32.495Z,60.85
2019-05-02T09:49:10.668Z,57.90
2019-05-02T09:51:36.979Z,56.53
2019-05-02T09:54:09.580Z,55.70
2019-05-02T09:56:42.975Z,50.77
2019-05-02T09:59:26.642Z,54.13
2019-05-02T10:01:49.949Z,56.75
2019-05-02T10:04:22.499Z,51.48
2019-05-02T10:06:53.856Z,54.47
2019-05-02T10:09:27.314Z,60.80
2019-05-02T10:12:01.877Z,54.90
2019-05-02T10:14:33.151Z,48.60
2019-05-02T10:17:07.079Z,49.80
2019-05-02T10:19:41.175Z,58.10
2019-05-02T10:22:12.267Z,50.37
2019-05-02T10:24:44.168Z,51.57
2019-05-02T10:27:17.216Z,68.50
2019-05-02T10:29:49.110Z,55.87
2019-05-02T10:32:22.671Z,53.93
2019-05-02T10:34:56.790Z,49.53
2019-05-02T10:37:32.371Z,55.70
2019-05-02T10:40:02.995Z,51.87
2019-05-02T10:42:35.758Z,48.70
2019-05-02T10:45:12.977Z,52.07
2019-05-02T10:47:42.398Z,53.60
2019-05-02T10:50:22.267Z,51.03
2019-05-02T10:52:53.530Z,55.85
2019-05-02T10:55:25.336Z,50.63
2019-05-02T10:57:57.149Z,51.02
2019-05-02T11:00:33.237Z,56.77
2019-05-02T11:03:19.331Z,57.03
2019-05-02T11:05:57.860Z,46.10
2019-05-02T11:08:28.496Z,48.60
2019-05-02T11:11:02.390Z,49.33
2019-05-02T11:14:00.747Z,51.53
2019-05-02T11:16:43.807Z,54.13
2019-05-02T11:19:31.861Z,48.43
2019-05-02T11:22:03.475Z,50.73
2019-05-02T11:24:35.388Z,49.80
2019-05-02T11:27:08.267Z,53.40
2019-05-02T11:29:39.875Z,47.50
2019-05-02T11:32:12.806Z,54.67
2019-05-02T11:34:44.718Z,48.67
2019-05-02T11:37:16.258Z,53.97
2019-05-02T11:39:52.679Z,46.73
2019-05-02T11:42:25.661Z,44.23
2019-05-02T11:44:55.242Z,44.45
2019-05-02T11:47:26.895Z,51.20
2019-05-02T11:49:58.569Z,47.10
2019-05-02T11:52:32.953Z,52.23
2019-05-02T11:55:03.608Z,47.67
2019-05-02T11:57:35.176Z,50.77
2019-05-02T12:00:08.975Z,49.07
2019-05-02T12:02:59.667Z,50.03
2019-05-02T12:05:43.432Z,47.50
2019-05-02T12:08:15.107Z,52.77
2019-05-02T12:10:46.529Z,45.53
2019-05-02T12:13:18.705Z,48.15
2019-05-02T12:15:51.910Z,51.00
2019-05-02T12:18:23.494Z,48.53
2019-05-02T12:20:55.385Z,49.63
2019-05-02T12:23:27.633Z,52.93
2019-05-02T12:25:59.515Z,50.28
2019-05-02T12:28:32.346Z,51.90
2019-05-02T12:31:08.063Z,52.60
2019-05-02T12:33:42.678Z,54.23
2019-05-02T12:36:14.413Z,53.67
2019-05-02T12:38:46.187Z,55.40
2019-05-02T12:41:22.245Z,44.33
2019-05-02T12:43:52.470Z,49.57
2019-05-02T12:46:24.103Z,46.90
2019-05-02T12:48:55.495Z,41.80
2019-05-02T12:51:27.061Z,52.70
2019-05-02T12:53:58.665Z,47.57
2019-05-02T12:56:29.672Z,49.80
2019-05-02T12:59:02.369Z,45.87
2019-05-02T13:01:34.458Z,53.17
2019-05-02T13:04:12.421Z,42.88
2019-05-02T13:06:43.877Z,46.87
2019-05-02T13:09:14.967Z,43.87
2019-05-02T13:12:06.258Z,46.53
2019-05-02T13:14:38.199Z,44.87
2019-05-02T13:17:09.441Z,48.47
2019-05-02T13:19:55.391Z,43.57
2019-05-02T13:22:32.774Z,42.37
2019-05-02T13:25:10.495Z,44.33
2019-05-02T13:27:47.134Z,45.57
2019-05-02T13:30:24.391Z,45.43
2019-05-02T13:32:59.458Z,43.87
2019-05-02T13:35:37.813Z,42.50
2019-05-02T13:38:09.921Z,43.73
2019-05-02T13:40:45.351Z,44.13
2019-05-02T13:43:16.912Z,43.17
2019-05-02T13:46:08.052Z,41.00
2019-05-02T13:48:40.317Z,41.45
2019-05-02T13:51:12.030Z,41.37
2019-05-02T13:53:56.947Z,42.60
2019-05-02T13:56:47.609Z,43.37
2019-05-02T13:59:22.367Z,51.35
2019-05-02T14:01:55.014Z,42.67
2019-05-02T14:04:26.939Z,42.77
2019-05-02T14:06:59.456Z,45.87
2019-05-02T14:09:53.049Z,43.52
2019-05-02T14:12:54.389Z,46.73
2019-05-02T14:15:29.870Z,45.63
2019-05-02T14:18:02.494Z,47.73
2019-05-02T14:20:37.247Z,48.42
2019-05-02T14:23:07.744Z,44.37
2019-05-02T14:25:39.399Z,48.53
2019-05-02T14:28:12.964Z,45.00
2019-05-02T14:30:46.301Z,42.90
2019-05-02T14:33:23.248Z,48.13
2019-05-02T14:35:55.046Z,51.13
2019-05-02T14:38:27.036Z,49.13
2019-05-02T14:41:06.635Z,52.00
2019-05-02T14:43:56.919Z,43.77
2019-05-02T14:46:35.359Z,48.13
2019-05-02T14:49:02.706Z,46.37
2019-05-02T14:51:36.608Z,50.23
2019-05-02T14:54:08.570Z,47.87
2019-05-02T14:56:52.277Z,45.47
2019-05-02T14:59:24.158Z,41.60
2019-05-02T15:02:05.802Z,47.73
2019-05-02T15:04:32.215Z,47.10
2019-05-02T15:07:04.580Z,42.47
2019-05-02T15:09:37.918Z,44.63
2019-05-02T15:12:15.924Z,43.17
2019-05-02T15:14:43.232Z,48.83
2019-05-02T15:17:14.867Z,47.73
2019-05-02T15:19:46.829Z,45.37
2019-05-02T15:22:18.720Z,51.40
2019-05-02T15:24:50.200Z,50.50
2019-05-02T15:27:22.274Z,53.08
2019-05-02T15:30:00.887Z,51.83
2019-05-02T15:32:46.410Z,58.63
2019-05-02T15:35:38.553Z,62.43
2019-05-02T15:38:14.388Z,69.58
2019-05-02T15:40:49.876Z,58.97
2019-05-02T15:43:16.853Z,56.33
2019-05-02T15:45:49.086Z,60.17
2019-05-02T15:48:27.075Z,63.57
2019-05-02T15:50:55.584Z,57.60
2019-05-02T15:53:33.333Z,60.30
2019-05-02T15:56:04.682Z,62.73
2019-05-02T15:58:36.335Z,62.87
2019-05-02T16:01:17.950Z,64.67
2019-05-02T16:03:52.269Z,67.87
2019-05-02T16:06:30.566Z,71.00
2019-05-02T16:08:56.972Z,63.03
2019-05-02T16:11:28.633Z,69.20
2019-05-02T16:14:02.222Z,63.00
2019-05-02T16:16:36.646Z,65.00
2019-05-02T16:19:07.392Z,62.40
2019-05-02T16:21:44.411Z,66.03
2019-05-02T16:24:23.314Z,65.67
2019-05-02T16:26:57.181Z,59.60
2019-05-02T16:29:29.232Z,59.27
2019-05-02T16:32:21.842Z,69.77
2019-05-02T16:35:16.996Z,65.57
2019-05-02T16:37:54.431Z,63.57
2019-05-02T16:40:29.608Z,63.00
2019-05-02T16:42:57.617Z,71.53
2019-05-02T16:45:28.908Z,64.10
2019-05-02T16:48:03.278Z,62.33
2019-05-02T16:50:36.884Z,64.67
2019-05-02T16:53:08.345Z,63.63
2019-05-02T16:55:43.425Z,62.47
2019-05-02T16:58:13.794Z,66.33
2019-05-02T17:00:45.673Z,86.93
2019-05-02T17:03:24.733Z,66.73
2019-05-02T17:05:54.429Z,65.07
2019-05-02T17:08:38.535Z,63.00
2019-05-02T17:11:15.801Z,65.70
2019-05-02T17:13:47.474Z,67.70
2019-05-02T17:16:19.539Z,72.93
2019-05-02T17:18:55.046Z,71.40
2019-05-02T17:21:33.693Z,70.47
2019-05-02T17:24:02.580Z,65.47
2019-05-02T17:26:34.468Z,64.60
2019-05-02T17:29:05.853Z,64.93
2019-05-02T17:31:37.992Z,70.67
2019-05-02T17:34:11.915Z,72.00
2019-05-02T17:36:45.638Z,65.27
2019-05-02T17:39:18.757Z,62.77
2019-05-02T17:41:50.080Z,65.77
2019-05-02T17:44:24.475Z,68.63
2019-05-02T17:46:58.243Z,67.00
2019-05-02T17:49:34.900Z,62.77
2019-05-02T17:52:26.170Z,56.05
2019-05-02T17:54:57.370Z,58.80
2019-05-02T17:57:28.579Z,59.87
2019-05-02T18:00:02.704Z,54.63
2019-05-02T18:02:34.599Z,58.83
2019-05-02T18:05:06.345Z,48.77
2019-05-02T18:07:38.219Z,57.43
2019-05-02T18:10:16.679Z,49.73
2019-05-02T18:12:47.697Z,54.77
2019-05-02T18:15:18.803Z,49.03
2019-05-02T18:17:52.384Z,44.20
2019-05-02T18:20:25.403Z,51.73
2019-05-02T18:22:57.740Z,48.73
2019-05-02T18:25:29.484Z,48.43
2019-05-02T18:28:02.404Z,53.63
2019-05-02T18:30:34.770Z,51.67
2019-05-02T18:33:07.346Z,50.63
2019-05-02T18:35:45.246Z,48.83
2019-05-02T18:38:15.878Z,55.83
2019-05-02T18:40:45.215Z,45.53
2019-05-02T18:43:17.057Z,46.67
2019-05-02T18:45:48.263Z,48.63
2019-05-02T18:48:21.847Z,51.20
2019-05-02T18:50:53.437Z,49.50
2019-05-02T18:53:27.310Z,42.67
2019-05-02T18:56:01.607Z,45.83
2019-05-02T18:58:36.252Z,43.70
2019-05-02T19:01:08.394Z,41.90
2019-05-02T19:03:39.036Z,44.77
2019-05-02T19:06:11.697Z,43.08
2019-05-02T19:08:49.648Z,46.97
2019-05-02T19:11:18.768Z,45.87
2019-05-02T19:13:52.502Z,41.83
2019-05-02T19:16:27.249Z,43.23
2019-05-02T19:18:57.520Z,45.70
2019-05-02T19:21:32.072Z,40.80
2019-05-02T19:24:03.333Z,48.17
2019-05-02T19:26:35.164Z,46.17
2019-05-02T19:29:17.170Z,50.58
2019-05-02T19:31:52.296Z,49.50
2019-05-02T19:34:26.730Z,48.40
2019-05-02T19:36:57.912Z,50.03
2019-05-02T19:39:32.276Z,54.20
2019-05-02T19:42:04.112Z,45.97
2019-05-02T19:44:35.459Z,53.30
2019-05-02T19:47:08.466Z,51.47
2019-05-02T19:49:42.550Z,56.47
2019-05-02T19:52:14.048Z,54.13
2019-05-02T19:54:45.675Z,41.97
2019-05-02T19:57:24.798Z,43.80
2019-05-02T19:59:52.553Z,42.70
2019-05-02T20:02:24.202Z,41.43
2019-05-02T20:04:55.797Z,43.70
2019-05-02T20:07:27.959Z,42.57
2019-05-02T20:10:01.806Z,42.57
2019-05-02T20:12:32.846Z,43.30
2019-05-02T20:15:04.733Z,45.93
2019-05-02T20:17:36.855Z,52.00
2019-05-02T20:20:12.655Z,61.17
2019-05-02T20:22:44.638Z,46.83
2019-05-02T20:25:16.693Z,35.37
2019-05-02T20:27:48.676Z,27.67
2019-05-02T20:30:22.491Z,22.60
2019-05-02T20:32:54.212Z,14.33
2019-05-02T20:35:27.435Z,13.77
2019-05-02T20:37:58.875Z,15.83
2019-05-02T20:40:31.887Z,12.07
2019-05-02T20:43:04.045Z,12.27
2019-05-02T20:45:35.483Z,19.80
2019-05-02T20:48:06.924Z,17.80
2019-05-02T20:50:38.966Z,16.07
2019-05-02T20:53:12.739Z,13.00
2019-05-02T20:55:43.851Z,16.50
2019-05-02T20:58:15.536Z,10.20
2019-05-02T21:00:47.247Z,12.33
2019-05-02T21:03:19.022Z,15.03
2019-05-02T21:06:03.004Z,10.40
2019-05-02T21:08:45.883Z,15.07
2019-05-02T21:11:18.029Z,9.80
2019-05-02T21:13:49.406Z,9.63
2019-05-02T21:16:21.809Z,11.90
2019-05-02T21:18:53.597Z,11.53
2019-05-02T21:21:26.378Z,7.17
2019-05-02T21:23:58.906Z,7.43
2019-05-02T21:26:32.905Z,7.07
2019-05-02T21:29:04.139Z,8.30
2019-05-02T21:31:36.353Z,6.77
2019-05-02T21:34:08.339Z,8.88
2019-05-02T21:36:42.385Z,7.70
2019-05-02T21:39:13.311Z,7.70
2019-05-02T21:41:45.558Z,7.58
2019-05-02T21:44:17.441Z,6.53
2019-05-02T21:46:49.167Z,4.30
2019-05-02T21:49:44.986Z,4.77
2019-05-02T21:52:27.926Z,6.27
2019-05-02T21:55:12.347Z,8.73
2019-05-02T21:57:44.323Z,5.80
2019-05-02T22:00:29.261Z,7.73
2019-05-02T22:03:02.127Z,6.83
2019-05-02T22:05:34.113Z,6.93
2019-05-02T22:08:05.602Z,3.67
2019-05-02T22:10:37.978Z,13.27
2019-05-02T22:13:10.024Z,4.73
2019-05-02T22:15:42.030Z,10.77
2019-05-02T22:18:13.738Z,5.33
2019-05-02T22:20:47.239Z,4.67
2019-05-02T22:23:19.100Z,6.43
2019-05-02T22:25:50.283Z,8.07
2019-05-02T22:28:22.233Z,7.73
2019-05-02T22:30:54.587Z,8.00
2019-05-02T22:33:26.338Z,10.20
2019-05-02T22:35:57.902Z,9.97
2019-05-02T22:38:49.103Z,7.75
2019-05-02T22:41:22.136Z,5.13
2019-05-02T22:43:53.784Z,7.07
2019-05-02T22:46:45.599Z,9.50
2019-05-02T22:49:17.349Z,5.27
2019-05-02T22:51:49.162Z,6.37
2019-05-02T22:54:27.737Z,7.43
2019-05-02T22:56:54.465Z,11.53
2019-05-02T22:59:26.428Z,5.17
2019-05-02T23:01:58.685Z,6.17
2019-05-02T23:04:32.582Z,9.03
2019-05-02T23:07:04.147Z,3.97
2019-05-02T23:09:36.069Z,6.47
2019-05-02T23:12:08.254Z,6.57
2019-05-02T23:14:41.838Z,8.30
2019-05-02T23:17:13.820Z,6.70
2019-05-02T23:19:46.039Z,6.90
2019-05-02T23:22:17.348Z,5.77
2019-05-02T23:25:11.653Z,6.70
2019-05-02T23:27:47.562Z,4.42
2019-05-02T23:30:22.577Z,6.55
2019-05-02T23:32:54.162Z,6.60
2019-05-02T23:35:26.060Z,6.67
2019-05-02T23:37:57.968Z,13.27
2019-05-02T23:40:30.130Z,8.17
2019-05-02T23:43:02.002Z,8.45
2019-05-02T23:45:33.502Z,12.00
2019-05-02T23:48:05.162Z,9.33
2019-05-02T23:50:37.184Z,9.23
2019-05-02T23:53:08.925Z,5.50
2019-05-02T23:55:40.250Z,10.43
2019-05-02T23:58:11.985Z,8.80
